Time;durP1;ratioP1;P1;durP2;ratioP2;P2;SDS_P1;SDS_P2;PMS_P1;PMS_P2;Temp;Humidity;BMP_temperature;BMP_pressure;BME280_temperature;BME280_humidity;BME280_pressure;Samples;Min_cycle;Max_cycle;Signal;HPM_P1;HPM_P2
2021/06/07 00:01:33;;;;;;;9.30;5.18;;;19.70;99.90;;;;;;5093018;28;20039;-67
2021/06/07 00:04:38;;;;;;;7.43;4.60;;;19.70;99.90;;;;;;5093431;28;20051;-67
2021/06/07 00:07:42;;;;;;;6.32;4.97;;;19.70;99.90;;;;;;5081151;28;20387;-68
2021/06/07 00:10:47;;;;;;;7.00;4.78;;;19.70;99.90;;;;;;5092757;28;20485;-68
2021/06/07 00:13:53;;;;;;;6.78;4.68;;;19.70;99.90;;;;;;5093236;28;20047;-68
2021/06/07 00:16:58;;;;;;;6.53;5.10;;;19.50;99.90;;;;;;5086191;28;20059;-68
2021/06/07 00:20:08;;;;;;;8.98;5.25;;;19.50;99.90;;;;;;5091515;28;20055;-67
2021/06/07 00:23:13;;;;;;;8.70;5.53;;;19.40;99.90;;;;;;5092857;28;20035;-68
2021/06/07 00:26:18;;;;;;;9.13;5.40;;;19.30;99.90;;;;;;5079278;28;20051;-68
2021/06/07 00:29:23;;;;;;;7.55;5.47;;;19.10;99.90;;;;;;5093098;28;20043;-67
2021/06/07 00:32:27;;;;;;;11.10;6.88;;;19.00;99.90;;;;;;5093058;28;20055;-67
2021/06/07 00:35:31;;;;;;;8.20;5.90;;;18.90;99.90;;;;;;5092167;28;20529;-68
2021/06/07 00:38:36;;;;;;;7.25;5.53;;;18.80;99.90;;;;;;5093101;28;20051;-68
2021/06/07 00:41:44;;;;;;;9.85;5.80;;;18.80;99.90;;;;;;5092523;28;20043;-67
2021/06/07 00:44:48;;;;;;;7.38;5.70;;;18.70;99.90;;;;;;5092936;28;20383;-67
2021/06/07 00:47:55;;;;;;;9.02;5.65;;;18.70;99.90;;;;;;5093055;28;20042;-68
2021/06/07 00:51:07;;;;;;;7.72;6.22;;;18.60;99.90;;;;;;5091336;28;20055;-67
2021/06/07 00:54:12;;;;;;;;;;;18.60;99.90;;;;;;5093516;28;20052;-68
2021/06/07 00:57:16;;;;;;;7.57;5.75;;;18.60;99.90;;;;;;5072592;28;20374;-68
2021/06/07 01:00:22;;;;;;;7.68;5.70;;;18.50;99.90;;;;;;5071451;28;20044;-67
2021/06/07 01:03:28;;;;;;;11.80;6.47;;;18.40;99.90;;;;;;5073412;28;20051;-67
2021/06/07 01:06:33;;;;;;;8.82;5.82;;;18.40;99.90;;;;;;5072135;28;20044;-67
2021/06/07 01:09:37;;;;;;;9.05;6.07;;;18.30;99.90;;;;;;5072809;28;20392;-67
2021/06/07 01:12:41;;;;;;;7.22;6.25;;;18.30;99.90;;;;;;5073058;28;20056;-69
2021/06/07 01:15:47;;;;;;;10.50;6.80;;;18.30;99.90;;;;;;5072329;28;20047;-67
2021/06/07 01:18:52;;;;;;;10.30;6.30;;;18.30;99.90;;;;;;5072271;28;20486;-69
2021/06/07 01:22:03;;;;;;;7.68;5.45;;;18.20;99.90;;;;;;5070519;28;20395;-68
2021/06/07 01:25:13;;;;;;;10.45;5.68;;;18.20;99.90;;;;;;5072299;28;20489;-66
2021/06/07 01:28:36;;;;;;;8.20;5.63;;;18.30;99.90;;;;;;5079400;28;20042;-69
2021/06/07 01:31:42;;;;;;;12.15;5.05;;;18.30;99.90;;;;;;5091137;28;20386;-68
2021/06/07 01:35:09;;;;;;;11.75;5.38;;;18.40;99.90;;;;;;5090477;28;20039;-68
2021/06/07 01:38:33;;;;;;;10.38;5.13;;;18.40;99.90;;;;;;5087138;28;20055;-68
2021/06/07 01:41:37;;;;;;;9.65;5.25;;;18.50;99.90;;;;;;5083584;28;20089;-68
2021/06/07 01:44:42;;;;;;;7.28;5.28;;;18.50;99.90;;;;;;5082025;28;20047;-68
2021/06/07 01:48:08;;;;;;;6.95;5.20;;;18.50;99.90;;;;;;5091187;28;20525;-68
2021/06/07 01:51:13;;;;;;;7.18;5.20;;;18.50;99.90;;;;;;5090317;28;20490;-68
2021/06/07 01:54:36;;;;;;;6.90;5.32;;;18.50;99.90;;;;;;5090697;28;20047;-68
2021/06/07 01:58:00;;;;;;;10.45;5.90;;;18.40;99.90;;;;;;5090484;28;20039;-68
2021/06/07 02:01:23;;;;;;;8.68;6.15;;;18.40;99.90;;;;;;5090952;28;20039;-68
2021/06/07 02:04:27;;;;;;;8.13;5.35;;;18.30;99.90;;;;;;5082433;28;20048;-68
2021/06/07 02:07:31;;;;;;;6.85;5.07;;;18.30;99.90;;;;;;5086668;28;20038;-68
2021/06/07 02:10:45;;;;;;;8.13;5.38;;;18.20;99.90;;;;;;5091240;28;20050;-68
2021/06/07 02:13:51;;;;;;;7.78;5.38;;;18.20;99.90;;;;;;5084417;28;20482;-68
2021/06/07 02:16:55;;;;;;;8.98;5.30;;;18.10;99.90;;;;;;5071599;28;20403;-68
2021/06/07 02:19:59;;;;;;;8.82;5.78;;;18.00;99.90;;;;;;5070189;28;20047;-68
2021/06/07 02:23:03;;;;;;;10.65;5.55;;;18.00;99.90;;;;;;5070489;28;20055;-68
2021/06/07 02:26:08;;;;;;;9.35;4.88;;;18.00;99.90;;;;;;5070398;28;20040;-68
2021/06/07 02:29:13;;;;;;;9.48;5.93;;;17.90;99.90;;;;;;5070478;28;20051;-68
2021/06/07 02:32:17;;;;;;;8.77;5.47;;;17.90;99.90;;;;;;5069460;28;20044;-68
2021/06/07 02:35:22;;;;;;;7.93;6.40;;;17.90;99.90;;;;;;5070103;28;20051;-68
2021/06/07 02:38:26;;;;;;;8.57;6.30;;;17.80;99.90;;;;;;5070850;28;20047;-68
2021/06/07 02:41:30;;;;;;;8.18;6.43;;;17.90;99.90;;;;;;5069300;28;20494;-68
2021/06/07 02:44:34;;;;;;;11.10;5.90;;;17.80;99.90;;;;;;5070775;28;20055;-68
2021/06/07 02:47:40;;;;;;;5.82;5.22;;;17.70;99.90;;;;;;5069012;28;20055;-67
2021/06/07 02:50:47;;;;;;;10.02;6.47;;;17.70;99.90;;;;;;5069040;28;20051;-68
2021/06/07 02:53:51;;;;;;;15.60;6.70;;;17.70;99.90;;;;;;5070538;28;20055;-68
2021/06/07 02:56:55;;;;;;;9.93;6.93;;;17.70;99.90;;;;;;5070615;28;20051;-67
2021/06/07 03:00:00;;;;;;;10.63;5.82;;;17.70;99.90;;;;;;5070280;28;20059;-67
2021/06/07 03:03:06;;;;;;;11.15;6.68;;;17.60;99.90;;;;;;5085915;28;20039;-68
2021/06/07 03:06:10;;;;;;;10.90;6.80;;;17.60;99.90;;;;;;5089648;28;20036;-67
2021/06/07 03:09:14;;;;;;;7.47;6.65;;;17.60;99.90;;;;;;5091023;28;20066;-68
2021/06/07 03:12:18;;;;;;;10.02;6.43;;;17.50;99.90;;;;;;5089512;28;20051;-69
2021/06/07 03:15:23;;;;;;;9.38;6.55;;;17.40;99.90;;;;;;5070482;28;20048;-68
2021/06/07 03:18:27;;;;;;;7.07;6.35;;;17.30;99.90;;;;;;5070320;28;20572;-68
2021/06/07 03:21:32;;;;;;;11.20;6.45;;;17.30;99.90;;;;;;5069105;28;20044;-68
2021/06/07 03:24:36;;;;;;;10.93;7.18;;;17.20;99.90;;;;;;5070456;28;20063;-68
2021/06/07 03:27:41;;;;;;;13.98;7.10;;;17.20;99.90;;;;;;5070226;28;20047;-68
2021/06/07 03:30:48;;;;;;;12.93;7.28;;;17.10;99.90;;;;;;5069712;28;20043;-68
2021/06/07 03:33:52;;;;;;;12.25;6.88;;;17.10;99.90;;;;;;5069887;28;21165;-68
2021/06/07 03:36:57;;;;;;;14.65;6.63;;;17.10;99.90;;;;;;5069602;28;20553;-69
2021/06/07 03:40:01;;;;;;;11.32;6.13;;;17.00;99.90;;;;;;5069803;28;20052;-67
2021/06/07 03:43:07;;;;;;;11.55;6.35;;;17.10;99.90;;;;;;5070246;28;20486;-68
2021/06/07 03:46:11;;;;;;;9.00;5.97;;;17.00;99.90;;;;;;5083455;28;20039;-68
2021/06/07 03:49:16;;;;;;;9.73;7.07;;;17.00;99.90;;;;;;5090301;28;20394;-68
2021/06/07 03:52:20;;;;;;;9.52;6.72;;;17.00;99.90;;;;;;5089248;28;20051;-68
2021/06/07 03:55:26;;;;;;;9.55;6.32;;;17.00;99.90;;;;;;5090287;28;20055;-68
2021/06/07 03:58:31;;;;;;;10.63;6.55;;;17.10;99.90;;;;;;5091738;28;20067;-68
2021/06/07 04:01:36;;;;;;;8.70;6.35;;;17.20;99.90;;;;;;5093613;28;20043;-68
2021/06/07 04:04:42;;;;;;;11.77;6.80;;;17.20;99.90;;;;;;5093320;28;20039;-69
2021/06/07 04:07:48;;;;;;;12.80;6.72;;;17.20;99.90;;;;;;5093929;28;20042;-68
2021/06/07 04:10:52;;;;;;;8.57;6.28;;;17.30;99.90;;;;;;5093075;28;20047;-67
2021/06/07 04:13:57;;;;;;;9.48;6.25;;;17.40;99.90;;;;;;5093308;28;20055;-68
2021/06/07 04:17:03;;;;;;;8.98;6.57;;;17.40;99.90;;;;;;5093305;28;20055;-67
2021/06/07 04:20:09;;;;;;;8.75;6.28;;;17.50;99.90;;;;;;5091667;28;20497;-67
2021/06/07 04:23:14;;;;;;;11.18;6.93;;;17.60;99.90;;;;;;5093217;28;20050;-68
2021/06/07 04:26:18;;;;;;;11.80;6.45;;;17.70;99.90;;;;;;5092915;28;20390;-68
2021/06/07 04:29:22;;;;;;;12.10;6.00;;;18.10;99.90;;;;;;5093351;28;20122;-68
2021/06/07 04:32:26;;;;;;;8.80;5.80;;;19.40;99.90;;;;;;5092261;28;20410;-68
2021/06/07 04:35:30;;;;;;;9.57;5.05;;;20.80;99.90;;;;;;5092518;28;20051;-68
2021/06/07 04:38:35;;;;;;;10.85;5.05;;;22.20;99.90;;;;;;5093303;28;20047;-68
2021/06/07 04:41:38;;;;;;;8.45;4.65;;;23.30;99.90;;;;;;5092221;28;20047;-68
2021/06/07 04:44:42;;;;;;;7.82;5.20;;;22.50;99.90;;;;;;5093124;28;20043;-68
2021/06/07 04:47:47;;;;;;;8.15;5.68;;;20.90;99.90;;;;;;5091440;28;20058;-68
2021/06/07 04:50:52;;;;;;;7.25;5.45;;;21.20;99.90;;;;;;5083397;28;20047;-68
2021/06/07 04:53:56;;;;;;;9.15;5.07;;;22.20;99.90;;;;;;5089358;28;20062;-67
2021/06/07 04:57:01;;;;;;;5.88;5.03;;;23.50;99.90;;;;;;5093252;28;20055;-67
2021/06/07 05:00:06;;;;;;;7.13;5.13;;;24.20;99.90;;;;;;5085506;28;20038;-67
2021/06/07 05:03:10;;;;;;;8.45;4.85;;;25.00;99.90;;;;;;5090286;28;20039;-67
2021/06/07 05:06:16;;;;;;;7.97;4.80;;;25.20;99.90;;;;;;5092040;28;20043;-67
2021/06/07 05:09:20;;;;;;;7.00;4.82;;;25.40;99.90;;;;;;5092585;28;20042;-67
2021/06/07 05:12:24;;;;;;;7.43;4.88;;;25.70;99.90;;;;;;5091741;28;20047;-67
2021/06/07 05:15:28;;;;;;;9.48;5.03;;;26.20;99.90;;;;;;5091638;28;20043;-67
2021/06/07 05:18:34;;;;;;;8.57;4.68;;;26.80;99.90;;;;;;5092086;28;20043;-68
2021/06/07 05:21:38;;;;;;;6.68;4.75;;;27.30;99.90;;;;;;5090361;28;20031;-68
2021/06/07 05:24:42;;;;;;;7.78;4.38;;;27.90;99.90;;;;;;5071713;28;20048;-67
2021/06/07 05:27:48;;;;;;;6.60;4.20;;;28.30;99.10;;;;;;5089321;28;20027;-67
2021/06/07 05:30:52;;;;;;;7.13;3.92;;;28.70;98.80;;;;;;5089365;28;20122;-68
2021/06/07 05:33:56;;;;;;;4.38;3.55;;;29.10;98.30;;;;;;5090206;28;20055;-68
2021/06/07 05:37:01;;;;;;;5.53;3.72;;;29.70;97.90;;;;;;5089477;28;20051;-68
2021/06/07 05:40:08;;;;;;;7.55;3.55;;;30.40;97.00;;;;;;5053346;28;20039;-67
2021/06/07 05:43:16;;;;;;;4.75;3.50;;;30.90;96.40;;;;;;5048296;28;20056;-67
2021/06/07 05:46:20;;;;;;;9.20;4.00;;;31.00;95.90;;;;;;5061304;28;20481;-67
2021/06/07 05:49:25;;;;;;;8.80;3.92;;;31.30;95.10;;;;;;5059672;28;20047;-67
2021/06/07 05:52:30;;;;;;;6.45;4.00;;;31.00;95.00;;;;;;5073448;28;20399;-67
2021/06/07 05:55:40;;;;;;;6.35;3.85;;;31.00;95.00;;;;;;5070094;28;20071;-68
2021/06/07 05:58:45;;;;;;;12.38;4.00;;;31.20;94.70;;;;;;5073526;28;20491;-67
2021/06/07 06:01:49;;;;;;;5.65;4.13;;;31.30;94.30;;;;;;5072236;28;20699;-68
2021/06/07 06:04:54;;;;;;;3.75;3.10;;;30.90;94.20;;;;;;5076078;28;20048;-67
2021/06/07 06:07:58;;;;;;;6.43;3.63;;;30.90;94.20;;;;;;5083912;28;20039;-67
2021/06/07 06:11:02;;;;;;;4.97;3.33;;;30.70;94.20;;;;;;5087060;28;20047;-67
2021/06/07 06:14:06;;;;;;;6.20;3.20;;;30.70;94.20;;;;;;5089488;28;20499;-68
2021/06/07 06:17:11;;;;;;;7.68;3.00;;;30.40;94.40;;;;;;5080983;28;20634;-67
2021/06/07 06:20:15;;;;;;;6.63;3.63;;;30.40;94.70;;;;;;5088476;28;20039;-68
2021/06/07 06:23:21;;;;;;;6.93;3.45;;;30.50;94.20;;;;;;5089112;28;20035;-67
2021/06/07 06:26:26;;;;;;;7.18;3.33;;;30.30;94.70;;;;;;5089476;28;20031;-68
2021/06/07 06:29:31;;;;;;;5.03;2.95;;;30.40;94.60;;;;;;5086546;28;20047;-68
2021/06/07 06:32:38;;;;;;;6.53;3.40;;;30.60;94.50;;;;;;5084708;28;20059;-68
2021/06/07 06:35:42;;;;;;;3.72;2.50;;;30.90;94.20;;;;;;5088724;28;20043;-68
2021/06/07 06:38:46;;;;;;;5.63;2.80;;;31.40;93.90;;;;;;5088598;28;20039;-68
2021/06/07 06:41:51;;;;;;;4.22;2.97;;;31.60;93.70;;;;;;5085238;28;20391;-68
2021/06/07 06:44:55;;;;;;;6.40;2.70;;;31.60;93.20;;;;;;5086558;28;20043;-68
2021/06/07 06:48:00;;;;;;;7.40;2.90;;;31.90;93.20;;;;;;5085266;28;20383;-68
2021/06/07 06:51:05;;;;;;;5.88;3.08;;;31.80;93.30;;;;;;5086432;28;20051;-68
2021/06/07 06:54:09;;;;;;;3.95;2.78;;;31.30;93.30;;;;;;5090783;28;20094;-67
2021/06/07 06:57:13;;;;;;;3.78;2.47;;;31.80;93.10;;;;;;5080470;28;20048;-67
2021/06/07 07:00:19;;;;;;;4.00;2.50;;;32.20;92.60;;;;;;5080075;28;20051;-68
2021/06/07 07:03:23;;;;;;;5.97;2.80;;;32.20;92.70;;;;;;5075789;28;20044;-67
2021/06/07 07:06:27;;;;;;;5.68;3.08;;;32.40;92.50;;;;;;5087648;28;20043;-69
2021/06/07 07:09:35;;;;;;;5.13;3.67;;;32.30;92.80;;;;;;5090360;28;20070;-67
2021/06/07 07:12:39;;;;;;;11.45;3.08;;;32.40;92.40;;;;;;5090436;28;20470;-67
2021/06/07 07:15:43;;;;;;;8.57;3.10;;;32.80;92.30;;;;;;5081398;28;20055;-67
2021/06/07 07:18:48;;;;;;;5.80;3.22;;;33.10;91.70;;;;;;5089715;28;20043;-67
2021/06/07 07:21:52;;;;;;;6.13;2.88;;;33.10;91.20;;;;;;5075369;28;20394;-68
2021/06/07 07:24:56;;;;;;;4.82;2.90;;;32.70;91.40;;;;;;5088787;28;20059;-68
2021/06/07 07:28:04;;;;;;;5.53;3.28;;;31.50;92.60;;;;;;5085525;28;20062;-67
2021/06/07 07:31:09;;;;;;;7.68;3.70;;;31.10;93.00;;;;;;5089395;28;20050;-67
2021/06/07 07:34:13;;;;;;;5.15;3.65;;;30.40;93.30;;;;;;5092430;28;20051;-67
2021/06/07 07:37:18;;;;;;;6.65;3.63;;;29.70;93.80;;;;;;5080688;28;20043;-67
2021/06/07 07:40:24;;;;;;;10.30;3.60;;;29.00;94.10;;;;;;5090085;28;20508;-68
2021/06/07 07:43:28;;;;;;;5.38;3.40;;;29.80;94.40;;;;;;5091896;28;20043;-68
2021/06/07 07:46:32;;;;;;;4.30;2.72;;;31.20;92.60;;;;;;5072326;28;20048;-69
2021/06/07 07:49:37;;;;;;;7.60;2.90;;;32.60;91.20;;;;;;5092548;28;20869;-67
2021/06/07 07:52:42;;;;;;;6.18;2.60;;;34.00;90.00;;;;;;5090437;28;20043;-67
2021/06/07 07:55:50;;;;;;;9.50;2.42;;;35.20;87.30;;;;;;5092985;28;20524;-68
2021/06/07 07:58:55;;;;;;;3.05;2.45;;;36.10;85.40;;;;;;5089852;28;20398;-68
2021/06/07 08:02:00;;;;;;;12.73;2.97;;;35.90;84.50;;;;;;5091895;28;20051;-68
2021/06/07 08:05:07;;;;;;;4.18;2.40;;;34.30;84.70;;;;;;5093393;28;20062;-69
2021/06/07 08:08:11;;;;;;;4.63;2.63;;;33.10;88.30;;;;;;5094054;28;20039;-68
2021/06/07 08:11:15;;;;;;;6.78;2.92;;;32.70;88.10;;;;;;5092397;28;20039;-68
2021/06/07 08:14:20;;;;;;;6.25;2.88;;;33.20;88.70;;;;;;5093649;28;20031;-68
2021/06/07 08:17:24;;;;;;;8.13;2.92;;;34.80;86.00;;;;;;5092682;28;20055;-69
2021/06/07 08:20:29;;;;;;;5.57;3.85;;;36.50;84.10;;;;;;5091755;28;20153;-68
2021/06/07 08:23:33;;;;;;;10.60;3.17;;;35.70;83.70;;;;;;5092927;28;20039;-68
2021/06/07 08:26:37;;;;;;;6.15;2.90;;;34.10;85.50;;;;;;5092637;28;20493;-67
2021/06/07 08:29:43;;;;;;;8.43;3.45;;;34.20;86.00;;;;;;5088864;28;20043;-68
2021/06/07 08:32:48;;;;;;;6.80;4.07;;;35.10;84.60;;;;;;5092882;28;20064;-67
2021/06/07 08:35:52;;;;;;;5.93;3.10;;;35.60;82.40;;;;;;5091882;28;20043;-68
2021/06/07 08:38:57;;;;;;;7.22;3.40;;;34.30;83.40;;;;;;5092090;28;20050;-68
2021/06/07 08:42:02;;;;;;;13.32;3.30;;;32.80;85.90;;;;;;5071861;28;20586;-68
2021/06/07 08:45:12;;;;;;;6.90;3.53;;;31.70;89.10;;;;;;5077729;28;20375;-68
2021/06/07 08:48:17;;;;;;;6.22;3.40;;;30.90;90.20;;;;;;5092373;28;20800;-67
2021/06/07 08:51:21;;;;;;;5.28;3.10;;;30.50;90.60;;;;;;5090936;28;20047;-68
2021/06/07 08:54:27;;;;;;;4.97;3.10;;;30.30;90.90;;;;;;5091120;28;20055;-68
2021/06/07 08:57:38;;;;;;;5.50;3.35;;;30.30;91.00;;;;;;5091215;28;20481;-68
2021/06/07 09:00:43;;;;;;;5.45;3.00;;;30.50;91.00;;;;;;5090819;28;20521;-68
2021/06/07 09:03:47;;;;;;;6.97;2.90;;;30.70;90.60;;;;;;5091557;28;20051;-68
2021/06/07 09:06:52;;;;;;;7.22;3.20;;;31.10;90.30;;;;;;5091991;28;20035;-68
2021/06/07 09:10:12;;;;;;;5.45;3.05;;;31.60;90.20;;;;;;5089298;28;20051;-68
2021/06/07 09:13:21;;;;;;;6.03;3.53;;;34.00;86.70;;;;;;5090470;28;20043;-70
2021/06/07 09:16:39;;;;;;;4.15;2.40;;;34.80;84.80;;;;;;5090414;28;20043;-68
2021/06/07 09:19:47;;;;;;;5.63;2.25;;;35.80;82.90;;;;;;5089202;28;20059;-69
2021/06/07 09:23:02;;;;;;;6.97;2.40;;;38.00;81.30;;;;;;5090582;28;20502;-68
2021/06/07 09:26:20;;;;;;;6.93;2.20;;;39.90;78.00;;;;;;5087659;28;20067;-69
2021/06/07 09:29:24;;;;;;;5.65;2.25;;;41.10;75.00;;;;;;5089635;28;20047;-70
2021/06/07 09:32:29;;;;;;;5.93;2.00;;;42.70;72.40;;;;;;5090381;28;20051;-70
2021/06/07 09:35:33;;;;;;;4.22;1.88;;;43.10;70.40;;;;;;5083549;28;20081;-69
2021/06/07 09:39:15;;;;;;;4.78;2.28;;;43.00;69.30;;;;;;5076235;28;20039;-69
2021/06/07 09:42:23;;;;;;;5.43;1.65;;;41.10;69.50;;;;;;5089396;28;20070;-68
2021/06/07 09:45:45;;;;;;;4.82;2.33;;;40.30;71.20;;;;;;5090684;28;20043;-68
2021/06/07 09:48:49;;;;;;;4.43;2.40;;;39.30;71.90;;;;;;5090913;28;20047;-69
2021/06/07 09:51:59;;;;;;;8.25;2.72;;;40.30;72.30;;;;;;5090288;28;20043;-71
2021/06/07 09:55:20;;;;;;;4.63;2.35;;;40.90;70.80;;;;;;5087340;28;20047;-69
2021/06/07 09:58:35;;;;;;;3.85;2.30;;;41.40;70.00;;;;;;5090510;28;20043;-69
2021/06/07 10:01:43;;;;;;;6.97;2.20;;;42.40;68.50;;;;;;5089573;28;20047;-68
2021/06/07 10:04:58;;;;;;;13.82;2.53;;;43.20;68.30;;;;;;5070930;28;20048;-67
2021/06/07 10:08:02;;;;;;;6.75;2.28;;;43.70;67.40;;;;;;5072499;28;20039;-68
2021/06/07 10:11:22;;;;;;;4.40;2.22;;;44.20;66.60;;;;;;5091376;28;20050;-67
2021/06/07 10:14:26;;;;;;;6.55;2.15;;;44.10;66.00;;;;;;5091952;28;20051;-68
2021/06/07 10:17:30;;;;;;;4.88;2.40;;;43.50;65.50;;;;;;5090934;28;20047;-68
2021/06/07 10:20:49;;;;;;;3.92;1.88;;;43.70;64.70;;;;;;5089902;28;20039;-69
2021/06/07 10:23:54;;;;;;;5.50;2.33;;;44.00;65.70;;;;;;5090437;28;20043;-68
2021/06/07 10:27:00;;;;;;;5.78;2.38;;;44.40;64.70;;;;;;5070478;28;20039;-68
2021/06/07 10:30:15;;;;;;;4.82;2.35;;;44.10;63.80;;;;;;5075316;28;20047;-67
2021/06/07 10:33:32;;;;;;;4.20;2.30;;;44.10;64.00;;;;;;5089218;28;20066;-68
2021/06/07 10:36:47;;;;;;;5.32;2.00;;;43.70;63.60;;;;;;5090151;28;20070;-68
2021/06/07 10:39:52;;;;;;;3.35;2.05;;;43.30;62.90;;;;;;5090652;28;20051;-67
2021/06/07 10:43:03;;;;;;;4.75;1.77;;;44.20;62.70;;;;;;5090757;28;20043;-68
2021/06/07 10:46:43;;;;;;;6.78;2.00;;;44.30;61.90;;;;;;5090577;28;20591;-67
2021/06/07 10:50:03;;;;;;;5.97;2.10;;;43.30;61.90;;;;;;5069041;28;20489;-68
2021/06/07 10:53:08;;;;;;;6.50;2.10;;;41.70;63.00;;;;;;5090426;28;20051;-69
2021/06/07 10:56:13;;;;;;;5.97;2.28;;;40.10;63.80;;;;;;5079513;28;20036;-68
2021/06/07 10:59:18;;;;;;;5.45;2.25;;;39.10;65.60;;;;;;5083532;28;20055;-67
2021/06/07 11:02:24;;;;;;;6.38;2.25;;;38.50;66.00;;;;;;5080707;28;20043;-68
2021/06/07 11:05:32;;;;;;;4.55;1.92;;;39.70;65.00;;;;;;5082883;28;20035;-70
2021/06/07 11:08:38;;;;;;;3.33;1.70;;;41.40;63.90;;;;;;5090915;28;20404;-69
2021/06/07 11:11:48;;;;;;;4.95;1.90;;;42.30;62.20;;;;;;5093299;28;20055;-69
2021/06/07 11:15:11;;;;;;;4.13;1.70;;;43.00;61.70;;;;;;5093380;28;20055;-70
2021/06/07 11:18:28;;;;;;;3.80;1.58;;;43.70;60.40;;;;;;5094506;28;20039;-69
2021/06/07 11:21:43;;;;;;;4.13;1.42;;;43.80;59.80;;;;;;5092248;28;20047;-69
2021/06/07 11:24:48;;;;;;;2.85;1.60;;;42.40;60.70;;;;;;5090126;28;20035;-69
2021/06/07 11:27:52;;;;;;;9.48;2.60;;;40.80;61.10;;;;;;5091351;28;20486;-67
2021/06/07 11:30:58;;;;;;;7.13;2.13;;;39.50;62.10;;;;;;5092717;28;20063;-67
2021/06/07 11:34:04;;;;;;;7.20;2.40;;;39.30;63.50;;;;;;5092425;28;20051;-67
2021/06/07 11:37:10;;;;;;;3.50;1.73;;;39.10;63.90;;;;;;5093396;28;20050;-69
2021/06/07 11:40:35;;;;;;;3.90;1.98;;;38.90;62.90;;;;;;5090140;28;20047;-67
2021/06/07 11:43:46;;;;;;;5.22;1.85;;;37.70;63.40;;;;;;5101873;28;20027;-67
2021/06/07 11:46:50;;;;;;;7.65;3.05;;;36.00;64.20;;;;;;5090907;28;20161;-65
2021/06/07 11:50:00;;;;;;;9.38;2.40;;;34.00;66.90;;;;;;5093599;28;20054;-66
2021/06/07 11:53:14;;;;;;;6.75;1.80;;;32.20;69.20;;;;;;5094419;28;20043;-67
2021/06/07 11:56:22;;;;;;;3.38;1.30;;;32.00;68.00;;;;;;5094140;28;20047;-64
2021/06/07 11:59:32;;;;;;;7.72;1.40;;;31.00;68.60;;;;;;5093625;28;20047;-66
2021/06/07 12:02:37;;;;;;;6.15;1.40;;;30.00;69.20;;;;;;5093977;28;20051;-67
2021/06/07 12:05:43;;;;;;;2.92;1.35;;;30.00;70.40;;;;;;5092489;28;20043;-67
2021/06/07 12:08:47;;;;;;;3.42;1.10;;;30.30;70.90;;;;;;5093948;28;20047;-67
2021/06/07 12:11:52;;;;;;;4.22;1.27;;;30.20;70.30;;;;;;5090898;28;20047;-67
2021/06/07 12:15:07;;;;;;;4.00;1.00;;;30.20;70.70;;;;;;5073254;28;20050;-67
2021/06/07 12:18:11;;;;;;;4.32;1.40;;;30.50;69.60;;;;;;5073294;28;20040;-68
2021/06/07 12:21:18;;;;;;;4.75;2.03;;;31.20;72.60;;;;;;5072060;28;20047;-68
2021/06/07 12:24:23;;;;;;;4.28;2.47;;;32.00;73.60;;;;;;5073583;28;20036;-68
2021/06/07 12:30:57;;;;;;;5.07;2.75;;;31.90;75.70;;;;;;5088825;28;20067;-68
2021/06/07 12:34:08;;;;;;;5.10;2.60;;;32.00;77.80;;;;;;5078852;28;20399;-68
2021/06/07 12:37:38;;;;;;;3.63;2.35;;;32.00;77.10;;;;;;5080982;28;20047;-68
2021/06/07 12:40:45;;;;;;;5.38;2.28;;;31.00;77.10;;;;;;5072420;28;20734;-68
2021/06/07 12:43:50;;;;;;;5.80;2.55;;;31.90;77.80;;;;;;5073213;28;20063;-68
2021/06/07 12:46:56;;;;;;;5.88;2.50;;;31.70;78.40;;;;;;5073324;28;20517;-68
2021/06/07 12:50:10;;;;;;;8.57;2.80;;;30.30;82.00;;;;;;5072206;28;20114;-67
2021/06/07 12:53:16;;;;;;;3.83;1.90;;;30.40;81.00;;;;;;5073547;28;20056;-67
2021/06/07 12:56:28;;;;;;;4.25;2.33;;;31.70;79.30;;;;;;5079574;28;20051;-68
2021/06/07 12:59:34;;;;;;;9.45;2.55;;;31.70;80.80;;;;;;5092922;28;20505;-68
2021/06/07 13:02:38;;;;;;;5.07;2.30;;;32.00;78.60;;;;;;5093252;28;20047;-68
2021/06/07 13:05:42;;;;;;;6.53;3.10;;;29.10;80.00;;;;;;5091904;28;20395;-67
2021/06/07 13:08:55;;;;;;;4.63;2.15;;;30.10;81.60;;;;;;5092978;28;20039;-68
2021/06/07 13:12:00;;;;;;;5.85;2.03;;;31.10;79.70;;;;;;5091969;28;20046;-68
2021/06/07 13:15:06;;;;;;;2.75;2.08;;;31.90;78.00;;;;;;5081922;28;20588;-67
2021/06/07 13:18:11;;;;;;;4.32;2.20;;;32.40;78.20;;;;;;5092743;28;20046;-68
2021/06/07 13:21:18;;;;;;;3.88;2.03;;;32.50;78.20;;;;;;5090752;28;20555;-69
2021/06/07 13:24:32;;;;;;;3.28;1.98;;;32.50;77.20;;;;;;5091874;28;20058;-67
2021/06/07 13:27:36;;;;;;;6.22;2.10;;;31.60;76.80;;;;;;5092897;28;20051;-68
2021/06/07 13:30:41;;;;;;;6.05;2.40;;;31.80;77.80;;;;;;5090332;28;20540;-69
2021/06/07 13:33:46;;;;;;;2.83;1.70;;;31.40;76.30;;;;;;5092564;28;20051;-68
2021/06/07 13:37:00;;;;;;;4.20;2.22;;;31.70;76.60;;;;;;5091533;28;20062;-68
2021/06/07 13:40:26;;;;;;;7.35;2.80;;;31.80;78.00;;;;;;5091132;28;20051;-65
2021/06/07 13:43:31;;;;;;;7.82;3.03;;;27.70;84.20;;;;;;5092184;28;20047;-66
2021/06/07 13:46:35;;;;;;;6.72;3.30;;;27.30;86.50;;;;;;5091731;28;20642;-67
2021/06/07 13:49:40;;;;;;;8.25;3.50;;;26.10;88.80;;;;;;5091663;28;20047;-69
2021/06/07 13:52:58;;;;;;;5.40;3.22;;;27.10;88.20;;;;;;5091456;28;20126;-67
2021/06/07 13:56:05;;;;;;;4.88;2.95;;;27.40;88.40;;;;;;5091589;28;20043;-68
2021/06/07 13:59:21;;;;;;;7.53;3.42;;;26.80;87.10;;;;;;5091934;28;20122;-68
2021/06/07 14:02:26;;;;;;;5.28;2.97;;;26.20;90.30;;;;;;5070677;28;20048;-68
2021/06/07 14:05:34;;;;;;;4.30;2.92;;;26.90;86.80;;;;;;5088340;28;20047;-69
2021/06/07 14:08:43;;;;;;;5.97;3.03;;;26.40;90.00;;;;;;5079182;28;20047;-67
2021/06/07 14:11:48;;;;;;;9.50;2.97;;;24.90;90.50;;;;;;5090834;28;20070;-68
2021/06/07 14:14:54;;;;;;;5.25;3.42;;;25.00;90.00;;;;;;5071334;28;20044;-68
2021/06/07 14:17:58;;;;;;;5.93;3.25;;;24.50;91.40;;;;;;5079614;28;20043;-69
2021/06/07 14:21:04;;;;;;;6.57;2.65;;;25.40;91.40;;;;;;5089453;28;20057;-68
2021/06/07 14:27:30;;;;;;;5.45;3.08;;;27.70;87.30;;;;;;5091589;28;20038;-67
2021/06/07 14:30:34;;;;;;;3.25;2.20;;;28.00;86.00;;;;;;5090509;28;20066;-68
2021/06/07 14:33:39;;;;;;;7.72;2.63;;;28.00;83.50;;;;;;5091590;28;20133;-69
2021/06/07 14:36:45;;;;;;;7.72;3.60;;;27.40;84.90;;;;;;5070779;28;20055;-68
2021/06/07 14:39:50;;;;;;;8.55;2.40;;;27.60;86.40;;;;;;5070862;28;20040;-68
2021/06/07 14:42:55;;;;;;;9.05;2.78;;;27.40;84.60;;;;;;5070502;28;20044;-69
2021/06/07 14:46:00;;;;;;;6.80;2.67;;;26.20;86.30;;;;;;5070561;28;20043;-68
2021/06/07 14:49:04;;;;;;;4.82;2.65;;;25.80;88.20;;;;;;5070916;28;20052;-68
2021/06/07 14:52:09;;;;;;;4.93;2.92;;;26.30;87.70;;;;;;5069865;28;20044;-68
2021/06/07 14:55:15;;;;;;;5.63;2.65;;;26.60;87.30;;;;;;5083357;28;20055;-69
2021/06/07 14:58:20;;;;;;;4.78;2.58;;;26.80;88.40;;;;;;5091477;28;20051;-68
2021/06/07 15:01:24;;;;;;;6.65;2.75;;;26.70;89.30;;;;;;5090211;28;20055;-69
2021/06/07 15:04:28;;;;;;;7.85;2.50;;;26.60;87.90;;;;;;5090934;28;20043;-69
2021/06/07 15:07:32;;;;;;;12.02;3.50;;;26.00;90.70;;;;;;5091009;28;20043;-68
2021/06/07 15:10:37;;;;;;;5.68;2.75;;;25.80;91.20;;;;;;5090454;28;20055;-68
2021/06/07 15:13:42;;;;;;;7.53;3.20;;;24.50;93.30;;;;;;5090414;28;20490;-68
2021/06/07 15:16:48;;;;;;;3.88;3.22;;;24.00;94.50;;;;;;5090378;28;20055;-69
2021/06/07 15:19:52;;;;;;;5.43;3.35;;;23.90;95.10;;;;;;5089625;28;20490;-68
2021/06/07 15:22:55;;;;;;;7.75;3.47;;;23.90;95.10;;;;;;5091346;28;20051;-68
2021/06/07 15:26:00;;;;;;;6.38;3.67;;;23.90;95.40;;;;;;5091163;28;20051;-68
2021/06/07 15:29:04;;;;;;;8.00;3.40;;;23.90;96.10;;;;;;5091475;28;20049;-69
2021/06/07 15:32:11;;;;;;;8.05;3.55;;;23.70;96.20;;;;;;5089978;28;20043;-67
2021/06/07 15:35:39;;;;;;;8.82;3.75;;;23.60;96.00;;;;;;5090130;28;20047;-68
2021/06/07 15:38:45;;;;;;;10.95;4.18;;;23.30;96.60;;;;;;5090851;28;20051;-68
2021/06/07 15:41:49;;;;;;;9.07;3.50;;;23.70;96.90;;;;;;5089631;28;20486;-68
2021/06/07 15:44:53;;;;;;;7.28;3.65;;;24.10;96.70;;;;;;5077725;28;20043;-68
2021/06/07 15:47:58;;;;;;;8.90;3.42;;;24.40;96.30;;;;;;5089732;28;20059;-68
2021/06/07 15:51:03;;;;;;;4.25;2.50;;;24.60;95.60;;;;;;5088483;28;20051;-68
2021/06/07 15:54:08;;;;;;;4.22;3.08;;;24.80;95.50;;;;;;5074605;28;20047;-68
2021/06/07 15:57:13;;;;;;;4.57;3.13;;;24.70;95.30;;;;;;5091807;28;20063;-69
2021/06/07 16:00:20;;;;;;;10.07;3.67;;;24.90;96.00;;;;;;5092907;28;20047;-68
2021/06/07 16:03:24;;;;;;;6.50;3.50;;;25.00;95.80;;;;;;5083476;28;20031;-68
2021/06/07 16:06:30;;;;;;;7.80;3.97;;;24.90;95.60;;;;;;5087378;28;20043;-69
2021/06/07 16:09:37;;;;;;;6.32;3.50;;;24.50;96.50;;;;;;5090009;28;20034;-68
2021/06/07 16:12:41;;;;;;;9.63;3.65;;;24.40;95.20;;;;;;5091348;28;20047;-69
2021/06/07 16:16:12;;;;;;;6.97;3.60;;;24.40;95.30;;;;;;5087909;28;20513;-68
2021/06/07 16:19:14;;;;;;;9.30;4.28;;;24.50;96.70;;;;;;5088908;28;20492;-68